Weather history for 0322

Weather History For Prescott AZ

This page updates 5 minutes after midnight. GMT -7

Station: KPRC0 Rows: 26

Return to today's weather
Year Date Temp (°F) Tmin (°F) Tmax (°F) RH% Prcp Snow Wind Gust Pres Sun Cloud
2000 2000-03-22 39.9 28.0 48.9 65 9.5 29.99 6
2001 2001-03-22 56.8 45.0 71.1 39 12.9 29.94 0
2002 2002-03-22 56.3 39.2 71.6 21 15.0 29.94 0
2003 2003-03-22 49.6 32.0 66.2 43 9.5 30.08 0
2004 2004-03-22 62.8 48.2 78.8 40 8.8 29.88 0
2005 2005-03-22 46.2 33.1 57.9 50 0.0 11.6 29.89 1
2006 2006-03-22 35.8 19.9 52.0 72 6.8 30.13 4
2007 2007-03-22 46.9 41.0 53.1 72 11.7 29.86 6
2008 2008-03-22 51.1 33.1 68.0 25 0.0 9.2 30.09 0
2009 2009-03-22 52.2 35.1 63.0 28 25.9 29.75 2
2010 2010-03-22 51.3 33.1 68.0 30 0.0 8.3 29.91 0
2011 2011-03-22 38.7 28.9 48.0 63 0.0 11.1 29.98 3
2012 2012-03-22 51.6 33.1 71.1 49 0.0 8.8 29.91 0
2013 2013-03-22 51.1 36.0 66.0 25 0.0 13.4 29.69 2
2014 2014-03-22 52.9 36.0 66.0 27 0.0 12.6 29.89 0
2015 2015-03-22 56.7 39.9 69.1 31 0.0 12.5 30.04 0
2016 2016-03-22 54.7 44.1 62.1 24 0.0 24.6 29.75
2017 2017-03-22 53.8 39.0 63.0 56 6.7 17.0 29.85
2018 2018-03-22 58.3 46.9 70.0 36 13.1 30.00
2019 2019-03-22 43.2 28.0 55.9 64 0.0 7.0 30.03
2020 2020-03-22 45.1 34.0 55.9 63 8.9 30.05 0
2021 2021-03-22 41.7 28.9 55.0 30 0.0 18.6 29.86 0
2022 2022-03-22 48.7 36.0 63.0 30 0.0 22.3 30.02 0
2023 2023-03-22 42.6 34.0 48.9 67 26.2 29.86 4
2024 2024-03-22 52.5 36.0 66.0 46 0.0 8.6 29.99 0
2025 2025-03-22 55.8 41.0 68.0 27 0.0 13.9 29.89 0
Average Low 35.7
Average High 62.6

Daily High / Low by Year (03/22)

Barometric Pressure by Year (03/22)

Weather data provided by Meteostat